Othello — LXOD — position and weather

sailwx.info

Track history (hours):
 
Tides and Currents Weather Stations Pressure Air Temp Water Temp Dewpoint Dewpoint Depression Visibility Wind Speed Wind Dir Waves Ship Positions

Othello

Last reported at 2017-Dec-11 14:27 UTC. Time now 2017-Dec-12 14:10 UTC.
Position N 37°45' W 000°21'.

Length 104 m; draft 7.5 m.

Type: Tanker. MMSI: 253279000.

Date/timePositionNaut miles runAvg speedWind from/ knotsBaromVisibWave heightAir tempDewpointWater temp
2017-Dec-11 14:27N 37°45' W 000°21'613.0
2017-Dec-11 13:59N 37°40' W 000°25'613.0
2017-Dec-11 13:30N 37°35' W 000°29'613.0
2017-Dec-11 13:00N 37°30' W 000°34'712.8
2017-Dec-11 12:29N 37°25' W 000°40'611.9
2017-Dec-11 12:00N 37°22' W 000°46'712.3
2017-Dec-11 11:27N 37°18' W 000°53'612.1
2017-Dec-11 10:55N 37°13' W 000°59'  
2017-Dec-03 17:22N 37°45' W 000°21'513.0
2017-Dec-03 17:00N 37°41' W 000°24'612.9
2017-Dec-03 16:30N 37°36' W 000°29'612.7
2017-Dec-03 16:00N 37°31' W 000°34'612.6
2017-Dec-03 15:30N 37°27' W 000°40'612.6
2017-Dec-03 15:00N 37°22' W 000°46'612.6
2017-Dec-03 14:30N 37°18' W 000°52'712.6
2017-Dec-03 13:56N 37°13' W 000°59'21012.5
2017-Dec-02 21:09N 36°02' W 005°04'415.2
2017-Dec-02 20:52N 36°01' W 005°10'515.1
2017-Dec-02 20:30N 35°60' W 005°16'815.0
2017-Dec-02 20:00N 35°58' W 005°25'  
Track history (hours):
 
Tides and Currents Weather Stations Pressure Air Temp Water Temp Dewpoint Dewpoint Depression Visibility Wind Speed Wind Dir Waves Ship Positions

Othello

Last reported at 2017-Dec-11 14:27 UTC. Time now 2017-Dec-12 14:10 UTC.
Position N 37°45' W 000°21'.

Length 104 m; draft 7.5 m.

Type: Tanker. MMSI: 253279000.

Date/timePositionNaut miles runAvg speedWind from/ knotsBaromVisibWave heightAir tempDewpointWater temp
2017-Dec-11 14:27N 37°45' W 000°21'613.0
2017-Dec-11 13:59N 37°40' W 000°25'613.0
2017-Dec-11 13:30N 37°35' W 000°29'613.0
2017-Dec-11 13:00N 37°30' W 000°34'712.8
2017-Dec-11 12:29N 37°25' W 000°40'611.9
2017-Dec-11 12:00N 37°22' W 000°46'712.3
2017-Dec-11 11:27N 37°18' W 000°53'612.1
2017-Dec-11 10:55N 37°13' W 000°59'  
2017-Dec-03 17:22N 37°45' W 000°21'513.0
2017-Dec-03 17:00N 37°41' W 000°24'612.9
2017-Dec-03 16:30N 37°36' W 000°29'612.7
2017-Dec-03 16:00N 37°31' W 000°34'612.6
2017-Dec-03 15:30N 37°27' W 000°40'612.6
2017-Dec-03 15:00N 37°22' W 000°46'612.6
2017-Dec-03 14:30N 37°18' W 000°52'712.6
2017-Dec-03 13:56N 37°13' W 000°59'21012.5
2017-Dec-02 21:09N 36°02' W 005°04'415.2
2017-Dec-02 20:52N 36°01' W 005°10'515.1
2017-Dec-02 20:30N 35°60' W 005°16'815.0
2017-Dec-02 20:00N 35°58' W 005°25'  

Dump ship's entire track history